• Join FlightAware (Why Join?)
  • Login
  • US Flag 
03:32PM EDT


 

Airport Tracker/Info


-or-


 

Live Flight TrackerFlight Track Log ✈ TAM3891 ✈ 28-Apr-2013 ✈ SBEG / MAO - SBBE / BEL

Flight Track Log - Related Links

Times and Time Zones

All times are in EDT time to prevent confusion due to time zone crossing. See the TAM3891 flight status page for this flight to view local times or setup timezone preferences in your user account.

Time Position Orientation Groundspeed Altitude Reporting Facility
EDT Latitude Longitude Course Direction KTS MPH feet Rate Location/Type
03:43PM -2.7287 -57.8337 82° East  Level Estimated
03:44PM -2.7145 -57.7330 82° East  Level Estimated
03:45PM -2.7004 -57.6323 82° East  Level Estimated
03:46PM -2.6862 -57.5316 82° East  Level Estimated
03:47PM -2.6719 -57.4309 82° East  Level Estimated
03:48PM -2.6577 -57.3302 82° East  Level Estimated
03:49PM -2.6435 -57.2296 82° East  Level Estimated
03:50PM -2.6293 -57.1289 82° East  Level Estimated
03:51PM -2.6150 -57.0282 82° East  Level Estimated
03:52PM -2.6008 -56.9275 82° East  Level Estimated
03:53PM -2.5865 -56.8268 82° East  Level Estimated
03:54PM -2.5722 -56.7262 82° East  Level Estimated
03:55PM -2.5580 -56.6255 82° East  Level Estimated
03:56PM -2.5437 -56.5248 82° East  Level Estimated
03:57PM -2.5294 -56.4241 82° East  Level Estimated
03:58PM -2.5151 -56.3235 82° East  Level Estimated
03:59PM -2.5008 -56.2228 82° East  Level Estimated
04:00PM -2.4865 -56.1222 82° East  Level Estimated
04:01PM -2.4721 -56.0215 82° East  Level Estimated
04:02PM -2.4578 -55.9208 82° East  Level Estimated
04:03PM -2.4435 -55.8202 82° East  Level Estimated
04:04PM -2.4291 -55.7195 82° East  Level Estimated
04:05PM -2.4148 -55.6189 82° East  Level Estimated
04:06PM -2.4004 -55.5182 82° East  Level Estimated
04:07PM -2.3860 -55.4176 82° East  Level Estimated
04:08PM -2.3717 -55.3169 82° East  Level Estimated
04:09PM -2.3555 -55.2034 82° East  Level Estimated
04:10PM -2.3392 -55.0900 82° East  Level Estimated
04:11PM -2.3230 -54.9765 82° East  Level Estimated
04:12PM -2.3068 -54.8631 82° East  Level Estimated
04:13PM -2.2905 -54.7496 82° East  Level Estimated
04:14PM -2.2743 -54.6361 82° East  Level Estimated
04:15PM -2.2580 -54.5227 82° East  Level Estimated
04:16PM -2.2417 -54.4092 82° East  Level Estimated
04:17PM -2.2254 -54.2958 82° East  Level Estimated
04:18PM -2.2091 -54.1823 82° East  Level Estimated
04:19PM -2.1928 -54.0689 82° East  Level Estimated
04:20PM -2.1765 -53.9555 82° East  Level Estimated
04:21PM -2.1602 -53.8420 82° East  Level Estimated
04:22PM -2.1439 -53.7286 82° East  Level Estimated
04:23PM -2.1275 -53.6152 82° East  Level Estimated
04:24PM -2.1112 -53.5017 82° East  Level Estimated
04:25PM -2.0948 -53.3883 82° East  Level Estimated
04:26PM -2.0784 -53.2749 82° East  Level Estimated
04:27PM -2.0621 -53.1614 82° East  Level Estimated
04:28PM -2.0457 -53.0480 82° East  Level Estimated
04:29PM -2.0293 -52.9346 82° East  Level Estimated
04:30PM -2.0129 -52.8212 82° East  Level Estimated
04:31PM -1.9965 -52.7077 82° East  Level Estimated
04:32PM -1.9801 -52.5943 82° East  Level Estimated
04:33PM -1.9637 -52.4809 82° East  Level Estimated
04:34PM -1.9473 -52.3675 82° East  Level Estimated
04:35PM -1.9308 -52.2541 82° East  Level Estimated
04:36PM -1.9144 -52.1407 82° East  Level Estimated
04:37PM -1.8979 -52.0273 82° East  Level Estimated
04:38PM -1.8815 -51.9139 82° East  Level Estimated
04:38PM -1.8630 -51.1240 82° East 445 512 39,000  Level FlightAware
04:39PM -1.8650 -51.8005 82° East  Level Estimated
04:39PM -1.8390 -51.0490 72° East 445 512 39,000  Level FlightAware
04:40PM -1.8010 -50.9370 71° East 445 512 39,000  Level FlightAware
04:41PM -1.8010 -50.8110 90° East 451 519 39,000  Level FlightAware
04:42PM -1.7970 -50.6980 88° East 452 520 39,000  Level FlightAware
04:42PM -1.7950 -50.6250 88° East 453 521 39,000 -540 Level FlightAware
04:43PM -1.7910 -50.5270 88° East 458 527 38,300 -1,740 Descending FlightAware
04:44PM -1.7880 -50.4460 88° East 457 526 36,600 -2,940 Descending FlightAware
04:44PM -1.7850 -50.3380 88° East 459 528 34,200 -2,700 Descending FlightAware
04:45PM -1.7810 -50.2520 87° East 449 517 32,600 -2,160 Descending FlightAware
04:46PM -1.7800 -50.1940 89° East 439 505 31,500 -2,100 Descending FlightAware
04:47PM -1.7750 -50.0740 88° East 428 493 29,300 -2,220 Descending FlightAware
04:47PM -1.7720 -49.9940 88° East 414 476 27,800 -2,220 Descending FlightAware
04:48PM -1.7700 -49.9220 88° East 406 467 26,400 -1,020 Descending FlightAware
04:49PM -1.7670 -49.8450 88° East 406 467 26,400  Level FlightAware
04:49PM -1.7650 -49.7810 88° East 406 467 26,400  Level FlightAware
04:50PM -1.7620 -49.7010 88° East 406 467 26,400  Level FlightAware
04:51PM -1.7600 -49.6370 88° East 406 467 26,400  Level FlightAware
04:52PM -1.7580 -49.5740 88° East 406 467 26,400  Level FlightAware
04:54PM -1.6846 -49.3610 71° East  Level Estimated
04:55PM -1.6472 -49.2527 71° East  Level Estimated
04:56PM -1.6099 -49.1444 71° East  Level Estimated
04:57PM -1.5725 -49.0361 71° East  Level Estimated
04:58PM -1.5351 -48.9278 71° East  Level Estimated
04:59PM -1.4977 -48.8195 71° East  Level Estimated
05:00PM -1.4604 -48.7112 71° East  Level Estimated
05:01PM -1.4230 -48.6029 71° East  Level Estimated
05:02PM -1.3856 -48.4946 71° East  Level Estimated
05:03PM -1.3793 -48.4763 71° East  Level Estimated
05:04PM -1.3793 -48.4763 270° West  Level Estimated
05:05PM -1.3793 -48.4763 270° West  Level Estimated
05:06PM -1.3793 -48.4763 270° West  Level Estimated
05:07PM -1.3793 -48.4763 270° West  Level Estimated
05:08PM -1.3793 -48.4763 270° West  Level Estimated
05:09PM -1.3793 -48.4763 270° West  Level Estimated
05:10PM -1.3793 -48.4763 270° West  Level Estimated
05:11PM -1.3793 -48.4763 270° West  Level Estimated
05:12PM -1.3793 -48.4763 270° West  Level Estimated
05:13PM -1.3793 -48.4763 270° West  Level Estimated
05:14PM -1.3793 -48.4763 270° West  Level Estimated
05:15PM -1.3793 -48.4763 270° West  Level Estimated
05:16PM -1.3793 -48.4763 270° West  Level Estimated
05:17PM -1.3793 -48.4763 270° West  Level Estimated
05:18PM -1.3793 -48.4763 270° West  Level Estimated
05:19PM -1.3793 -48.4763 270° West  Level Estimated